Latest Weather Observations for Jandakot

IDW60901

Issued at 3:21 pm WST Wednesday 10 August 2022 (issued every 10 minutes, with the page automatically refreshed every 10 minutes)

About weather observations | Map of Perth area stations | Latest observations for Perth area | Other Formats
Station Details ID: 009172 Name: JANDAKOT AERO Lat: -32.10 Lon: 115.88 Height: 30.0 m
Data from the previous 72 hours. | See also: Recent months at Jandakot
Date/Time
WST
Temp
°C
App
Temp
°C
Dew
Point
°C
Rel
Hum
%
Delta-T
°C
Wind Press
QNH
hPa
Press
MSL
hPa
Rain since
9am
mm
Dir  Spd
km/h
Gust
km/h
Spd
kts
Gust
kts
10/03:00pm 16.0 11.5 7.0 55 4.4 SW 20 28 11 15 1023.1 1023.1 0.0
10/02:30pm 16.1 11.3 7.3 56 4.4 SW 22 32 12 17 1023.1 1023.1 0.0
10/02:00pm 16.2 11.8 7.4 56 4.4 SSW 20 28 11 15 1022.9 1022.9 0.0
10/01:30pm 16.0 11.4 6.4 53 4.7 SSW 20 32 11 17 1023.0 1023.0 0.0
10/01:00pm 15.9 12.0 6.9 55 4.4 S 17 24 9 13 1023.2 1023.2 0.0
10/12:30pm 15.5 11.0 7.0 57 4.2 S 20 30 11 16 1023.5 1023.5 0.0
10/12:00pm 15.1 9.9 5.3 52 4.6 S 22 33 12 18 1024.0 1024.0 0.0
10/11:30am 14.9 10.1 5.4 53 4.5 SSW 20 28 11 15 1024.0 1024.0 0.0
10/11:00am 14.2 10.9 6.3 59 3.8 S 13 20 7 11 1024.2 1024.2 0.0
10/10:30am 13.0 11.0 7.0 67 2.9 S 7 13 4 7 1024.2 1024.2 0.0
10/10:00am 11.7 11.3 8.2 79 1.7 CALM 0 0 0 0 1024.2 1024.2 0.0
10/09:30am 11.1 11.0 9.5 90 0.8 CALM 0 0 0 0 1024.0 1024.0 0.0
10/09:00am 9.2 8.7 8.0 92 0.6 CALM 0 0 0 0 1023.9 1023.9 8.4
10/08:30am 8.4 7.8 7.6 95 0.4 CALM 0 0 0 0 1023.7 1023.7 8.4
10/08:00am 7.5 6.8 7.1 97 0.2 CALM 0 0 0 0 1023.3 1023.3 8.4
10/07:30am 6.6 5.8 6.3 98 0.1 CALM 0 0 0 0 1022.9 1022.9 8.4
10/07:00am 6.1 5.1 5.7 97 0.2 CALM 0 0 0 0 1022.5 1022.5 8.4
10/06:44am 6.4 5.5 6.1 98 0.1 CALM 0 0 0 0 1022.3 1022.3 8.4
10/06:30am 6.1 5.1 5.8 98 0.1 CALM 0 0 0 0 1022.0 1022.0 8.4
10/06:03am 5.4 4.3 5.0 97 0.2 CALM 0 0 0 0 1021.7 1021.7 8.4
10/06:00am 5.5 4.4 5.1 97 0.2 CALM 0 0 0 0 1021.7 1021.7 8.4
10/05:56am 5.8 4.8 5.5 98 0.1 CALM 0 0 0 0 1021.5 1021.5 8.4
10/05:30am 5.6 4.5 5.3 98 0.1 CALM 0 0 0 0 1021.0 1021.0 8.4
10/05:00am 5.4 4.3 5.1 98 0.1 CALM 0 0 0 0 1020.5 1020.5 8.4
10/04:30am 5.4 4.3 5.1 98 0.1 CALM 0 0 0 0 1020.2 1020.2 8.2
10/04:16am 5.3 4.2 5.0 98 0.1 CALM 0 0 0 0 1020.2 1020.2 8.2
10/04:02am 5.0 3.8 4.6 97 0.2 CALM 0 0 0 0 1020.2 1020.2 8.2
10/04:00am 5.3 4.2 5.0 98 0.1 CALM 0 0 0 0 1020.2 1020.2 8.2
10/03:37am 5.4 4.3 5.0 97 0.2 CALM 0 0 0 0 1020.2 1020.2 8.2
10/03:30am 5.6 4.5 5.3 98 0.1 CALM 0 0 0 0 1020.1 1020.1 8.2
10/03:28am 5.6 4.5 5.3 98 0.1 CALM 0 0 0 0 1020.1 1020.1 8.2
10/03:00am 5.9 4.9 5.5 97 0.2 CALM 0 0 0 0 1020.0 1020.0 8.2
10/02:30am 5.8 4.8 5.4 97 0.2 CALM 0 0 0 0 1020.2 1020.2 8.2
10/02:00am 5.8 4.8 5.5 98 0.1 CALM 0 0 0 0 1020.2 1020.2 8.2
10/01:30am 5.5 4.4 5.2 98 0.1 CALM 0 0 0 0 1020.0 1020.0 8.0
10/01:17am 5.3 4.2 4.9 97 0.2 CALM 0 0 0 0 1019.9 1019.9 8.0
10/01:00am 5.5 4.4 5.1 97 0.2 CALM 0 0 0 0 1019.8 1019.8 8.0
10/12:30am 5.8 4.8 5.4 97 0.2 CALM 0 0 0 0 1019.9 1019.9 8.0
10/12:00am 5.0 3.8 4.6 97 0.2 CALM 0 0 0 0 1019.8 1019.8 8.0
 
Date/Time
WST
Temp
°C
App
Temp
°C
Dew
Point
°C
Rel
Hum
%
Delta-T
°C
Wind Press
QNH
hPa
Press
MSL
hPa
Rain since
9am
mm
Dir  Spd
km/h
Gust
km/h
Spd
kts
Gust
kts
09/11:30pm 5.7 4.6 5.1 96 0.3 CALM 0 0 0 0 1019.6 1019.6 8.0
09/11:00pm 6.3 5.3 5.7 96 0.3 CALM 0 0 0 0 1019.4 1019.4 8.0
09/10:30pm 6.0 4.9 5.3 95 0.3 CALM 0 0 0 0 1019.5 1019.5 8.0
09/10:00pm 7.1 6.3 6.4 95 0.3 CALM 0 0 0 0 1019.3 1019.3 8.0
09/09:30pm 7.1 6.3 6.5 96 0.3 CALM 0 0 0 0 1019.2 1019.2 8.0
09/09:00pm 6.3 5.2 5.1 92 0.5 CALM 0 0 0 0 1018.5 1018.5 8.0
09/08:30pm 7.6 6.8 6.7 94 0.4 CALM 0 0 0 0 1018.3 1018.3 8.0
09/08:00pm 7.7 6.9 6.6 93 0.5 CALM 0 0 0 0 1018.1 1018.1 7.8
09/07:30pm 8.0 6.1 6.6 91 0.6 S 6 7 3 4 1017.4 1017.4 7.8
09/07:00pm 8.7 5.5 7.0 89 0.8 SSE 13 15 7 8 1016.9 1016.9 7.8
09/06:30pm 9.1 6.0 7.2 88 0.9 S 13 19 7 10 1016.8 1016.8 7.8
09/06:00pm 9.0 6.2 7.0 87 0.9 SSW 11 15 6 8 1016.5 1016.5 7.6
09/05:30pm 9.3 5.3 6.7 84 1.2 S 17 20 9 11 1015.9 1015.9 7.6
09/05:00pm 10.1 4.8 6.8 80 1.6 SSW 24 39 13 21 1015.7 1015.7 7.4
09/04:30pm 10.6 6.6 6.7 77 1.8 SSW 17 24 9 13 1015.1 1015.1 7.2
09/04:00pm 10.5 5.4 7.6 82 1.4 SW 24 33 13 18 1014.8 1014.8 7.2
09/03:30pm 11.2 4.0 6.1 71 2.4 SSW 33 48 18 26 1014.6 1014.6 7.0
09/03:20pm 12.2 5.8 5.4 63 3.2 SSW 28 46 15 25 1014.3 1014.3 7.0
09/03:00pm 12.4 8.1 6.9 69 2.6 SSW 19 28 10 15 1014.1 1014.1 7.0
09/02:30pm 10.3 7.1 6.8 79 1.6 SSW 13 24 7 13 1013.8 1013.8 7.0
09/02:00pm 11.3 9.6 8.5 83 1.4 WSW 7 11 4 6 1013.4 1013.4 5.6
09/01:30pm 10.7 8.6 8.3 85 1.2 WSW 9 13 5 7 1013.5 1013.5 5.4
09/01:00pm 9.4 5.3 7.8 90 0.8 NW 19 24 10 13 1013.0 1013.0 4.8
09/12:30pm 9.6 7.5 6.5 81 1.4 SSW 7 11 4 6 1013.3 1013.3 4.2
09/12:00pm 9.7 7.8 6.8 82 1.4 SSW 6 11 3 6 1013.5 1013.5 4.0
09/11:30am 9.2 7.3 6.5 83 1.3 SE 6 7 3 4 1013.5 1013.5 4.0
09/11:00am 8.5 6.4 6.5 87 0.9 SSW 7 13 4 7 1013.8 1013.8 3.8
09/10:30am 8.5 5.6 6.5 87 0.9 SE 11 13 6 7 1013.0 1013.0 3.4
09/10:00am 8.0 4.7 6.3 89 0.8 S 13 17 7 9 1013.3 1013.3 3.0
09/09:34am 7.8 4.8 6.1 89 0.8 SSW 11 17 6 9 1013.1 1013.1 2.4
09/09:30am 7.9 4.9 6.2 89 0.8 SSW 11 17 6 9 1013.1 1013.1 2.2
09/09:20am 8.0 5.9 6.8 92 0.6 S 7 11 4 6 1012.9 1012.9 1.2
09/09:00am 8.3 5.6 7.2 93 0.5 SE 11 15 6 8 1012.2 1012.2 32.4
09/08:30am 8.0 4.8 6.9 93 0.5 SE 13 15 7 8 1011.8 1011.8 32.4
09/08:00am 7.7 4.9 7.1 96 0.3 ESE 11 15 6 8 1011.0 1011.0 32.4
09/07:30am 7.8 7.1 7.1 95 0.3 CALM 0 0 0 0 1010.4 1010.4 31.8
09/07:10am 7.7 5.7 7.0 95 0.3 ESE 7 11 4 6 1009.7 1009.7 31.2
09/07:00am 7.7 5.3 6.8 94 0.4 SSE 9 11 5 6 1009.7 1009.7 31.2
09/06:50am 7.9 3.9 6.7 92 0.6 SSE 17 28 9 15 1009.6 1009.6 30.6
09/06:30am 8.1 2.3 6.1 87 0.9 WSW 26 37 14 20 1009.4 1009.4 28.2
09/06:26am 8.2 2.8 6.3 88 0.9 WSW 24 39 13 21 1009.4 1009.4 28.0
09/06:14am 8.1 4.1 6.7 91 0.6 S 17 26 9 14 1009.4 1009.4 27.4
09/06:00am 8.4 4.9 7.2 92 0.6 SSW 15 30 8 16 1009.5 1009.5 26.0
09/05:45am 8.5 2.4 6.8 89 0.8 SSW 28 46 15 25 1009.5 1009.5 25.0
09/05:30am 8.6 4.7 7.1 90 0.7 SW 17 43 9 23 1009.5 1009.5 23.6
09/05:00am 7.9 4.8 7.3 96 0.3 ENE 13 15 7 8 1008.6 1008.6 22.4
09/04:30am 7.9 5.1 7.1 95 0.4 NE 11 19 6 10 1008.7 1008.7 22.4
09/04:00am 7.8 5.0 6.9 94 0.4 ENE 11 13 6 7 1008.9 1008.9 21.8
09/03:30am 7.9 7.2 6.8 93 0.5 CALM 0 7 0 4 1009.3 1009.3 21.8
09/03:28am 7.9 7.2 6.8 93 0.5 CALM 0 0 0 0 1009.3 1009.3 21.8
09/03:08am 8.0 6.0 6.9 93 0.5 SSE 7 11 4 6 1009.6 1009.6 20.8
09/03:00am 8.1 5.7 6.9 92 0.6 ESE 9 11 5 6 1009.1 1009.1 19.0
09/02:30am 8.5 5.8 7.3 92 0.6 SSW 11 17 6 9 1009.6 1009.6 18.6
09/02:00am 8.4 4.5 6.9 90 0.7 SW 17 20 9 11 1009.9 1009.9 17.2
09/01:30am 9.1 4.9 7.5 90 0.8 W 19 24 10 13 1010.1 1010.1 14.8
09/01:02am 9.2 1.0 6.6 84 1.2 WSW 39 57 21 31 1010.2 1010.2 13.4
09/01:00am 9.4 1.5 6.3 81 1.4 WSW 37 57 20 31 1010.1 1010.1 13.4
09/12:59am 9.7 2.2 6.1 78 1.7 W 35 57 19 31 1010.1 1010.1 13.4
09/12:55am 10.9 4.6 5.9 71 2.3 W 28 57 15 31 1009.8 1009.8 13.4
09/12:30am 10.9 3.8 5.4 69 2.5 WNW 32 46 17 25 1010.1 1010.1 13.4
09/12:10am 11.4 5.1 5.7 68 2.6 WNW 28 50 15 27 1010.6 1010.6 12.6
09/12:00am 11.1 6.0 5.8 70 2.5 WNW 22 30 12 16 1010.4 1010.4 12.6
 
Date/Time
WST
Temp
°C
App
Temp
°C
Dew
Point
°C
Rel
Hum
%
Delta-T
°C
Wind Press
QNH
hPa
Press
MSL
hPa
Rain since
9am
mm
Dir  Spd
km/h
Gust
km/h
Spd
kts
Gust
kts
08/11:30pm 10.9 5.5 6.3 73 2.2 W 24 41 13 22 1011.0 1011.0 12.4
08/11:01pm 10.8 4.0 6.7 76 1.9 W 32 50 17 27 1011.2 1011.2 12.4
08/11:00pm 10.9 3.9 6.8 76 1.9 W 33 50 18 27 1011.3 1011.3 12.4
08/10:41pm 12.7 6.2 4.9 59 3.6 WNW 28 46 15 25 1011.1 1011.1 12.4
08/10:30pm 12.5 6.1 5.4 62 3.3 W 28 39 15 21 1011.2 1011.2 12.4
08/10:00pm 12.8 6.6 4.5 57 3.8 W 26 35 14 19 1011.2 1011.2 12.4
08/09:30pm 11.7 7.9 5.8 67 2.8 WNW 15 22 8 12 1011.7 1011.7 12.4
08/09:00pm 12.1 7.6 6.2 67 2.8 W 19 33 10 18 1012.1 1012.1 12.4
08/08:30pm 12.9 6.2 3.8 54 4.1 WNW 28 35 15 19 1011.8 1011.8 12.4
08/08:00pm 12.9 7.3 5.6 61 3.4 W 24 37 13 20 1011.9 1011.9 12.4
08/07:30pm 12.9 6.7 4.1 55 4.0 W 26 35 14 19 1011.7 1011.7 12.4
08/07:00pm 13.2 7.6 5.6 60 3.6 W 24 32 13 17 1011.7 1011.7 12.4
08/06:30pm 13.0 6.7 5.7 61 3.4 W 28 44 15 24 1011.4 1011.4 12.4
08/06:23pm 13.2 7.5 6.5 64 3.2 W 26 44 14 24 1011.3 1011.3 12.4
08/06:00pm 11.9 8.0 8.6 80 1.6 WNW 19 24 10 13 1011.3 1011.3 12.4
08/05:30pm 12.8 9.3 7.3 69 2.7 W 15 24 8 13 1011.2 1011.2 12.0
08/05:09pm 14.0 7.4 7.8 66 3.1 W 32 54 17 29 1011.1 1011.1 12.0
08/05:00pm 14.1 9.4 7.9 66 3.1 W 22 32 12 17 1011.0 1011.0 12.0
08/04:43pm 14.9 8.7 7.7 62 3.6 W 30 48 16 26 1010.8 1010.8 11.8
08/04:30pm 15.2 8.7 6.7 57 4.1 W 30 41 16 22 1010.7 1010.7 11.8
08/04:00pm 15.7 9.5 8.0 60 3.9 W 30 46 16 25 1010.7 1010.7 11.8
08/03:31pm 15.0 9.5 9.1 68 3.0 W 28 46 15 25 1010.7 1010.7 11.8
08/03:30pm 15.0 9.1 9.1 68 3.0 W 30 46 16 25 1010.7 1010.7 11.8
08/03:00pm 15.0 11.3 10.0 72 2.6 W 20 30 11 16 1010.7 1010.7 11.8
08/02:30pm 14.1 11.9 12.1 88 1.1 WNW 15 20 8 11 1010.5 1010.5 11.8
08/02:00pm 13.3 11.3 11.4 88 1.0 WNW 13 19 7 10 1010.6 1010.6 10.8
08/01:48pm 13.2 10.0 11.1 87 1.1 NW 19 24 10 13 1010.7 1010.7 10.8
08/01:35pm 13.7 8.7 12.1 90 0.9 W 30 41 16 22 1011.0 1011.0 10.6
08/01:30pm 14.0 9.9 11.5 85 1.3 W 24 41 13 22 1011.1 1011.1 10.0
08/01:00pm 15.1 11.9 11.3 78 2.0 W 19 28 10 15 1011.2 1011.2 9.4
08/12:30pm 15.3 10.4 11.3 77 2.1 W 28 37 15 20 1011.7 1011.7 9.4
08/12:00pm 14.9 10.4 11.5 80 1.8 W 26 39 14 21 1011.9 1011.9 9.4
08/11:40am 14.0 9.0 12.2 89 1.0 W 30 46 16 25 1012.4 1012.4 9.4
08/11:37am 13.9 8.5 12.1 89 1.0 W 32 48 17 26 1012.5 1012.5 9.4
08/11:34am 13.8 9.1 12.0 89 1.0 W 28 48 15 26 1012.4 1012.4 9.4
08/11:30am 13.7 10.2 12.1 90 0.9 WNW 22 48 12 26 1012.5 1012.5 9.4
08/11:24am 13.9 11.1 13.1 95 0.4 WNW 20 33 11 18 1012.7 1012.7 9.0
08/11:11am 13.8 9.8 12.9 94 0.5 N 26 43 14 23 1012.1 1012.1 4.6
08/11:00am 13.6 9.4 12.3 92 0.7 N 26 33 14 18 1012.4 1012.4 2.6
08/10:51am 14.0 10.5 12.2 89 1.0 N 22 32 12 17 1012.5 1012.5 1.8
08/10:40am 14.3 10.8 12.3 88 1.1 N 22 30 12 16 1012.9 1012.9 1.6
08/10:30am 14.1 10.3 12.3 89 1.0 N 24 35 13 19 1012.9 1012.9 1.6
08/10:00am 13.9 8.9 10.9 82 1.6 N 28 37 15 20 1013.2 1013.2 0.4
08/09:30am 13.5 9.2 10.9 84 1.4 N 24 32 13 17 1013.3 1013.3 0.4
08/09:00am 13.2 9.6 10.7 85 1.3 N 20 28 11 15 1013.6 1013.6 0.6
08/08:30am 12.2 8.2 9.2 82 1.5 N 20 30 11 16 1013.9 1013.9 0.4
08/08:00am 12.6 7.3 8.5 76 2.0 N 26 35 14 19 1013.8 1013.8 0.0
08/07:30am 12.6 8.3 7.9 73 2.3 N 20 26 11 14 1013.7 1013.7 0.0
08/07:00am 12.0 7.9 7.7 75 2.1 N 19 24 10 13 1013.9 1013.9 0.0
08/06:30am 11.8 8.5 7.9 77 1.9 N 15 20 8 11 1014.1 1014.1 0.0
08/06:00am 11.9 8.1 7.4 74 2.2 N 17 20 9 11 1013.9 1013.9 0.0
08/05:30am 11.7 7.8 7.2 74 2.2 NNE 17 20 9 11 1014.0 1014.0 0.0
08/05:00am 12.1 8.3 7.4 73 2.3 NNE 17 20 9 11 1014.2 1014.2 0.0
08/04:30am 12.5 9.0 7.4 71 2.5 N 15 20 8 11 1014.4 1014.4 0.0
08/04:00am 12.6 9.6 7.5 71 2.5 NNE 13 17 7 9 1014.7 1014.7 0.0
08/03:30am 14.2 11.0 7.0 62 3.5 NNW 13 17 7 9 1015.0 1015.0 0.0
08/03:00am 13.2 10.1 7.4 68 2.8 N 13 19 7 10 1015.0 1015.0 0.0
08/02:30am 14.2 10.7 7.3 63 3.4 NNW 15 19 8 10 1015.2 1015.2 0.0
08/02:00am 13.8 10.9 6.4 61 3.5 N 11 13 6 7 1015.7 1015.7 0.0
08/01:30am 12.8 10.2 7.9 72 2.4 N 11 13 6 7 1016.2 1016.2 0.0
08/01:00am 12.6 10.1 8.3 75 2.1 NNE 11 13 6 7 1016.4 1016.4 0.0
08/12:30am 12.5 10.1 8.6 77 1.9 NNE 11 13 6 7 1016.5 1016.5 0.0
08/12:00am 13.0 11.3 8.5 74 2.2 N 7 9 4 5 1016.7 1016.7 0.0
 
Date/Time
WST
Temp
°C
App
Temp
°C
Dew
Point
°C
Rel
Hum
%
Delta-T
°C
Wind Press
QNH
hPa
Press
MSL
hPa
Rain since
9am
mm
Dir  Spd
km/h
Gust
km/h
Spd
kts
Gust
kts
07/11:30pm 12.3 10.4 9.1 81 1.6 N 9 13 5 7 1016.8 1016.8 0.0
07/11:00pm 12.2 11.9 8.7 79 1.7 CALM 0 7 0 4 1017.0 1017.0 0.0
07/10:30pm 12.8 12.6 9.1 78 1.9 CALM 0 6 0 3 1017.3 1017.3 0.0
07/10:00pm 13.5 11.5 7.1 65 3.1 NW 7 11 4 6 1017.5 1017.5 0.0
07/09:30pm 13.4 10.3 7.2 66 3.0 WNW 13 15 7 8 1017.8 1017.8 0.0
07/09:00pm 13.4 10.0 7.8 69 2.8 WNW 15 19 8 10 1017.8 1017.8 0.0
07/08:30pm 11.1 9.2 6.8 75 2.0 NNW 6 7 3 4 1017.7 1017.7 0.0
07/08:00pm 12.3 9.8 6.6 68 2.7 NW 9 13 5 7 1017.7 1017.7 0.0
07/07:30pm 13.1 10.8 7.3 68 2.8 NW 9 13 5 7 1017.7 1017.7 0.0
07/07:00pm 13.8 13.7 9.3 74 2.3 CALM 0 0 0 0 1017.4 1017.4 0.0
07/06:30pm 14.3 12.8 8.5 68 2.9 SW 6 9 3 5 1017.1 1017.1 0.0
07/06:00pm 14.7 12.2 8.4 66 3.2 WSW 11 15 6 8 1016.8 1016.8 0.0
07/05:30pm 14.7 12.5 9.3 70 2.8 WSW 11 19 6 10 1016.7 1016.7 0.0
07/05:00pm 15.4 12.6 8.6 64 3.5 WSW 13 17 7 9 1016.6 1016.6 0.0
07/04:30pm 15.5 13.3 9.4 67 3.2 SSW 11 17 6 9 1016.6 1016.6 0.0
07/04:00pm 15.4 11.7 9.5 68 3.0 WSW 19 28 10 15 1016.6 1016.6 0.0
07/03:30pm 17.4 13.3 7.7 53 4.9 W 19 26 10 14 1016.2 1016.2 0.0

Latest Capital City Observations: Canberra | Sydney | Melbourne | Brisbane | Adelaide | Perth | Hobart | Darwin

Other formats

Comma delimited format used in spreadsheet applications
http://www.bom.gov.au/fwo/IDW60901/IDW60901.94609.axf

JavaScript Object Notation format (JSON) in row-major order
http://www.bom.gov.au/fwo/IDW60901/IDW60901.94609.json

Data quality

Most of these data are generated automatically and are frequently updated. Quality checks on data are not normally performed. It is possible for incorrect values to appear. Refer to information at About Latest Weather Observations and please check the disclaimer before using these data.